Minneapolis, Minnesota
Traffic Map
Current Weather Conditions
Minneapolis, Minnesota
Scattered Clouds
Scattered Clouds
69°
Feels Like: 69°
Wind Chill: 69° Ceiling: Unl
Heat Index: 69° Visibility: 10mi
Dew Point: 33° Wind: 15mph
Humidity: 26% Direction: 80° (E)
Pressure: 30in Gusts: 0mph
Raw Report DataKMSP 181853Z 08013KT 10SM SCT300 21/01 A3000 RMK AO2 SLP160 T02060006
Traffic Incident Summary
Active as of:
Severity:
Category:
InformationThere was an issue retrieving the traffic information for this location. Please try a different location or try again shortly.
Advertisements
Track Severe Weather on mobile